Fantasy — H3GS — position and weather

sailwx.info

Track history (hours):
 
Tides and Currents Weather Stations Pressure Air Temp Water Temp Dewpoint Dewpoint Depression Visibility Wind Speed Wind Dir Waves Ship Positions

Fantasy

Operator: Carnival Cruise Lines

Last reported at 2019-Dec-15 02:54 UTC. Time now 2019-Dec-15 10:19 UTC.
Position N 29°52' W 087°50'.

Type: Ship. MMSI: 353486000.

Date/timePositionNaut miles runAvg speedWind from/ knotsBaromVisibWave heightAir tempDewpointWater temp
2019-Dec-15 02:54N 29°52' W 087°50'50 3.5
2019-Dec-14 12:24N 30°41' W 088°02'8 4.3
2019-Dec-14 10:29N 30°33' W 088°02'54515.6
2019-Dec-12 23:30N 21°36' W 089°44'16 4.6
2019-Dec-12 19:59N 21°20' W 089°40'0 0.0
2019-Dec-12 14:59N 21°20' W 089°40'0 0.0
2019-Dec-12 13:30N 21°20' W 089°40'7 7.0
2019-Dec-12 12:30N 21°27' W 089°42'2315.4
2019-Dec-12 11:00N 21°38' W 089°20'15013.2
2019-Dec-11 23:38N 20°45' W 086°50'1816.3
2019-Dec-11 22:31N 20°29' W 086°59'1 0.4
2019-Dec-11 20:58N 20°29' W 086°59'0 0.0
2019-Dec-11 19:28N 20°29' W 086°59'  
2019-Dec-07 23:40N 20°44' W 086°50'319.2
2019-Dec-07 23:30N 20°41' W 086°52'14 6.8
2019-Dec-07 21:28N 20°29' W 086°59'0 0.0
2019-Dec-07 20:28N 20°29' W 086°59'0 0.0
2019-Dec-07 15:28N 20°29' W 086°59'0 0.0
2019-Dec-07 14:28N 20°29' W 086°59'0 0.0
2019-Dec-07 13:58N 20°29' W 086°59'  
Track history (hours):
 
Tides and Currents Weather Stations Pressure Air Temp Water Temp Dewpoint Dewpoint Depression Visibility Wind Speed Wind Dir Waves Ship Positions

Fantasy

Operator: Carnival Cruise Lines

Last reported at 2019-Dec-15 02:54 UTC. Time now 2019-Dec-15 10:19 UTC.
Position N 29°52' W 087°50'.

Type: Ship. MMSI: 353486000.

Date/timePositionNaut miles runAvg speedWind from/ knotsBaromVisibWave heightAir tempDewpointWater temp
2019-Dec-15 02:54N 29°52' W 087°50'50 3.5
2019-Dec-14 12:24N 30°41' W 088°02'8 4.3
2019-Dec-14 10:29N 30°33' W 088°02'54515.6
2019-Dec-12 23:30N 21°36' W 089°44'16 4.6
2019-Dec-12 19:59N 21°20' W 089°40'0 0.0
2019-Dec-12 14:59N 21°20' W 089°40'0 0.0
2019-Dec-12 13:30N 21°20' W 089°40'7 7.0
2019-Dec-12 12:30N 21°27' W 089°42'2315.4
2019-Dec-12 11:00N 21°38' W 089°20'15013.2
2019-Dec-11 23:38N 20°45' W 086°50'1816.3
2019-Dec-11 22:31N 20°29' W 086°59'1 0.4
2019-Dec-11 20:58N 20°29' W 086°59'0 0.0
2019-Dec-11 19:28N 20°29' W 086°59'  
2019-Dec-07 23:40N 20°44' W 086°50'319.2
2019-Dec-07 23:30N 20°41' W 086°52'14 6.8
2019-Dec-07 21:28N 20°29' W 086°59'0 0.0
2019-Dec-07 20:28N 20°29' W 086°59'0 0.0
2019-Dec-07 15:28N 20°29' W 086°59'0 0.0
2019-Dec-07 14:28N 20°29' W 086°59'0 0.0
2019-Dec-07 13:58N 20°29' W 086°59'  

Dump ship's entire track history